createdAt,value
2022-08-25T00:00:14.158Z,25.20
2022-08-25T00:02:45.540Z,25.20
2022-08-25T00:05:26.242Z,25.20
2022-08-25T00:07:54.326Z,25.20
2022-08-25T00:10:21.861Z,25.20
2022-08-25T00:12:49.188Z,25.20
2022-08-25T00:15:16.368Z,25.10
2022-08-25T00:17:43.519Z,25.20
2022-08-25T00:20:11.291Z,25.20
2022-08-25T00:22:38.580Z,25.10
2022-08-25T00:25:06.141Z,25.10
2022-08-25T00:27:33.343Z,25.10
2022-08-25T00:30:00.595Z,25.10
2022-08-25T00:32:28.176Z,25.10
2022-08-25T00:34:55.352Z,25.10
2022-08-25T00:37:22.621Z,25.10
2022-08-25T00:39:49.863Z,25.10
2022-08-25T00:42:20.222Z,25.10
2022-08-25T00:44:47.891Z,25.10
2022-08-25T00:47:15.089Z,25.10
2022-08-25T00:49:59.100Z,25.10
2022-08-25T00:52:31.677Z,25.10
2022-08-25T00:55:08.022Z,25.10
2022-08-25T00:57:43.428Z,25.10
2022-08-25T01:00:19.555Z,25.10
2022-08-25T01:02:47.111Z,25.10
2022-08-25T01:05:14.809Z,25.10
2022-08-25T01:07:44.666Z,25.10
2022-08-25T01:10:13.630Z,25.10
2022-08-25T01:12:41.348Z,25.10
2022-08-25T01:15:11.260Z,25.10
2022-08-25T01:17:49.226Z,25.10
2022-08-25T01:20:19.518Z,25.10
2022-08-25T01:22:55.307Z,25.10
2022-08-25T01:25:53.281Z,25.10
2022-08-25T01:28:21.716Z,25.10
2022-08-25T01:30:50.328Z,25.10
2022-08-25T01:33:17.548Z,25.10
2022-08-25T01:35:47.657Z,25.10
2022-08-25T01:38:15.383Z,25.10
2022-08-25T01:40:43.198Z,25.10
2022-08-25T01:43:27.557Z,25.10
2022-08-25T01:45:54.740Z,25.10
2022-08-25T01:48:21.911Z,25.10
2022-08-25T01:50:48.998Z,25.10
2022-08-25T01:53:32.350Z,25.10
2022-08-25T01:56:09.757Z,25.10
2022-08-25T01:58:40.666Z,25.10
2022-08-25T02:01:11.867Z,25.10
2022-08-25T02:03:42.048Z,25.10
2022-08-25T02:06:12.719Z,25.10
2022-08-25T02:08:40.610Z,25.10
2022-08-25T02:11:12.234Z,25.10
2022-08-25T02:13:40.756Z,25.10
2022-08-25T02:16:09.493Z,25.10
2022-08-25T02:18:36.843Z,25.00
2022-08-25T02:21:04.165Z,25.10
2022-08-25T02:23:31.300Z,25.10
2022-08-25T02:25:58.615Z,25.10
2022-08-25T02:28:26.428Z,25.10
2022-08-25T02:31:01.240Z,25.10
2022-08-25T02:33:29.372Z,25.10
2022-08-25T02:36:01.592Z,25.10
2022-08-25T02:38:30.006Z,25.10
2022-08-25T02:40:59.089Z,25.10
2022-08-25T02:43:27.882Z,25.10
2022-08-25T02:45:56.601Z,25.10
2022-08-25T02:48:24.603Z,25.10
2022-08-25T02:50:53.015Z,25.10
2022-08-25T02:53:21.586Z,25.10
2022-08-25T02:55:48.835Z,25.10
2022-08-25T02:58:16.134Z,25.10
2022-08-25T03:00:43.343Z,25.10
2022-08-25T03:03:10.532Z,25.10
2022-08-25T03:05:38.018Z,25.10
2022-08-25T03:08:07.258Z,25.00
2022-08-25T03:10:35.650Z,25.10
2022-08-25T03:13:02.845Z,25.10
2022-08-25T03:15:30.677Z,25.10
2022-08-25T03:17:59.918Z,25.00
2022-08-25T03:20:28.078Z,25.00
2022-08-25T03:22:55.316Z,25.10
2022-08-25T03:25:42.351Z,25.10
2022-08-25T03:28:13.692Z,25.10
2022-08-25T03:30:42.169Z,25.00
2022-08-25T03:33:09.646Z,25.10
2022-08-25T03:35:37.073Z,25.10
2022-08-25T03:38:06.259Z,25.00
2022-08-25T03:40:33.774Z,25.10
2022-08-25T03:43:01.315Z,25.10
2022-08-25T03:45:28.532Z,25.10
2022-08-25T03:47:55.927Z,25.00
2022-08-25T03:50:24.105Z,25.10
2022-08-25T03:52:54.941Z,25.10
2022-08-25T03:55:24.038Z,25.10
2022-08-25T03:57:52.980Z,25.10
2022-08-25T04:00:22.377Z,25.10
2022-08-25T04:02:49.726Z,25.10
2022-08-25T04:05:16.932Z,25.10
2022-08-25T04:07:44.102Z,25.10
2022-08-25T04:10:12.611Z,25.10
2022-08-25T04:12:40.176Z,25.10
2022-08-25T04:15:08.852Z,25.00
2022-08-25T04:17:39.915Z,25.10
2022-08-25T04:20:09.247Z,25.10
2022-08-25T04:22:37.798Z,25.10
2022-08-25T04:25:06.612Z,25.10
2022-08-25T04:27:33.979Z,25.10
2022-08-25T04:30:01.147Z,25.10
2022-08-25T04:32:28.542Z,25.10
2022-08-25T04:34:55.693Z,25.10
2022-08-25T04:37:22.851Z,25.10
2022-08-25T04:39:50.086Z,25.10
2022-08-25T04:42:17.304Z,25.10
2022-08-25T04:44:44.539Z,25.10
2022-08-25T04:47:12.428Z,25.10
2022-08-25T04:49:39.789Z,25.10
2022-08-25T04:52:12.974Z,25.10
2022-08-25T04:54:42.320Z,25.10
2022-08-25T04:57:09.735Z,25.20
2022-08-25T04:59:36.908Z,25.20
2022-08-25T05:02:05.533Z,25.20
2022-08-25T05:04:36.244Z,25.20
2022-08-25T05:07:03.767Z,25.20
2022-08-25T05:09:32.519Z,25.20
2022-08-25T05:12:01.388Z,25.20
2022-08-25T05:14:29.467Z,25.10
2022-08-25T05:16:57.091Z,25.10
2022-08-25T05:19:24.855Z,24.90
2022-08-25T05:21:52.944Z,24.70
2022-08-25T05:24:20.917Z,24.50
2022-08-25T05:26:49.595Z,24.30
2022-08-25T05:29:17.016Z,24.00
2022-08-25T05:31:50.066Z,23.70
2022-08-25T05:34:19.147Z,23.40
2022-08-25T05:36:48.335Z,23.00
2022-08-25T05:39:15.787Z,22.70
2022-08-25T05:41:43.781Z,22.30
2022-08-25T05:44:12.904Z,22.00
2022-08-25T05:46:40.247Z,21.70
2022-08-25T05:49:07.460Z,21.50
2022-08-25T05:51:34.622Z,21.20
2022-08-25T05:54:01.840Z,21.00
2022-08-25T05:56:28.971Z,20.80
2022-08-25T05:58:59.448Z,20.70
2022-08-25T06:01:48.037Z,20.50
2022-08-25T06:04:18.198Z,20.30
2022-08-25T06:06:45.607Z,20.20
2022-08-25T06:09:14.077Z,20.10
2022-08-25T06:11:41.801Z,20.00
2022-08-25T06:14:10.306Z,19.90
2022-08-25T06:16:39.280Z,19.90
2022-08-25T06:19:11.275Z,19.80
2022-08-25T06:21:41.840Z,19.70
2022-08-25T06:24:15.186Z,19.60
2022-08-25T06:26:44.160Z,19.60
2022-08-25T06:29:14.250Z,19.50
2022-08-25T06:31:42.775Z,19.40
2022-08-25T06:34:11.161Z,19.30
2022-08-25T06:36:38.393Z,19.10
2022-08-25T06:39:05.676Z,19.00
2022-08-25T06:41:36.758Z,18.80
2022-08-25T06:44:05.387Z,18.80
2022-08-25T06:46:36.095Z,18.70
2022-08-25T06:49:06.107Z,18.60
2022-08-25T06:51:35.840Z,18.60
2022-08-25T06:54:04.260Z,18.50
2022-08-25T06:56:31.432Z,18.40
2022-08-25T06:58:58.888Z,18.40
2022-08-25T07:01:30.144Z,18.40
2022-08-25T07:04:01.068Z,18.40
2022-08-25T07:06:32.115Z,18.40
2022-08-25T07:09:00.376Z,18.40
2022-08-25T07:11:29.310Z,18.40
2022-08-25T07:13:58.561Z,18.50
2022-08-25T07:16:29.626Z,18.40
2022-08-25T07:18:57.864Z,18.40
2022-08-25T07:21:33.388Z,18.40
2022-08-25T07:24:04.028Z,18.30
2022-08-25T07:26:38.981Z,18.40
2022-08-25T07:29:11.805Z,18.40
2022-08-25T07:31:39.604Z,18.30
2022-08-25T07:34:28.351Z,18.30
2022-08-25T07:36:57.176Z,18.30
2022-08-25T07:39:26.926Z,18.20
2022-08-25T07:41:56.336Z,18.30
2022-08-25T07:44:24.951Z,18.30
2022-08-25T07:46:55.905Z,18.30
2022-08-25T07:49:24.829Z,18.30
2022-08-25T07:52:03.708Z,18.30
2022-08-25T07:54:35.083Z,18.30
2022-08-25T07:57:04.863Z,18.30
2022-08-25T07:59:38.899Z,18.30
2022-08-25T08:02:16.077Z,18.30
2022-08-25T08:04:49.766Z,18.30
2022-08-25T08:07:19.954Z,18.30
2022-08-25T08:09:55.910Z,18.30
2022-08-25T08:12:28.702Z,18.40
2022-08-25T08:14:56.013Z,18.30
2022-08-25T08:17:23.261Z,18.30
2022-08-25T08:19:52.339Z,18.30
2022-08-25T08:22:19.835Z,18.30
2022-08-25T08:24:56.047Z,18.30
2022-08-25T08:27:24.748Z,18.40
2022-08-25T08:29:53.767Z,18.30
2022-08-25T08:32:21.443Z,18.40
2022-08-25T08:34:51.327Z,18.40
2022-08-25T08:37:22.004Z,18.40
2022-08-25T08:39:51.457Z,18.50
2022-08-25T08:42:47.262Z,18.50
2022-08-25T08:45:35.667Z,18.50
2022-08-25T08:48:39.085Z,18.50
2022-08-25T08:51:23.173Z,18.60
2022-08-25T08:54:14.996Z,18.60
2022-08-25T08:56:48.123Z,18.60
2022-08-25T08:59:28.892Z,18.70
2022-08-25T09:02:03.194Z,18.70
2022-08-25T09:04:45.663Z,18.70
2022-08-25T09:07:19.312Z,18.70
2022-08-25T09:09:48.669Z,18.70
2022-08-25T09:12:41.455Z,18.70
2022-08-25T09:16:01.381Z,18.70
2022-08-25T09:18:52.515Z,18.70
2022-08-25T09:21:37.407Z,18.90
2022-08-25T09:24:40.287Z,18.90
2022-08-25T09:27:34.159Z,18.90
2022-08-25T09:30:14.651Z,19.00
2022-08-25T09:32:48.760Z,19.00
2022-08-25T09:35:26.913Z,19.00
2022-08-25T09:38:09.454Z,19.10
2022-08-25T09:40:40.850Z,19.10
2022-08-25T09:43:32.105Z,19.10
2022-08-25T09:46:08.967Z,19.20
2022-08-25T09:48:56.594Z,19.30
2022-08-25T09:51:42.939Z,19.30
2022-08-25T09:54:25.603Z,19.30
2022-08-25T09:57:09.308Z,19.30
2022-08-25T09:59:37.917Z,19.40
2022-08-25T10:02:28.913Z,19.40
2022-08-25T10:04:56.773Z,19.40
2022-08-25T10:07:33.046Z,19.40
2022-08-25T10:10:02.808Z,19.40
2022-08-25T10:12:42.545Z,19.40
2022-08-25T10:15:32.262Z,19.50
2022-08-25T10:18:27.124Z,19.50
2022-08-25T10:21:13.989Z,19.60
2022-08-25T10:23:55.948Z,19.60
2022-08-25T10:26:55.445Z,19.60
2022-08-25T10:29:53.856Z,19.60
2022-08-25T10:32:48.931Z,19.60
2022-08-25T10:35:20.404Z,19.60
2022-08-25T10:38:21.717Z,19.60
2022-08-25T10:41:04.155Z,19.70
2022-08-25T10:44:27.794Z,19.70
2022-08-25T10:47:17.636Z,19.70
2022-08-25T10:49:54.862Z,19.70
2022-08-25T10:52:39.424Z,19.80
2022-08-25T10:55:18.200Z,19.80
2022-08-25T10:58:05.939Z,19.80
2022-08-25T11:00:40.384Z,19.80
2022-08-25T11:03:41.717Z,19.90
2022-08-25T11:06:19.825Z,19.90
2022-08-25T11:09:00.178Z,19.90
2022-08-25T11:11:36.181Z,19.90
2022-08-25T11:14:18.241Z,19.90
2022-08-25T11:17:13.238Z,19.90
2022-08-25T11:19:45.533Z,19.90
2022-08-25T11:22:35.628Z,19.90
2022-08-25T11:25:29.966Z,19.80
2022-08-25T11:28:14.774Z,19.80
2022-08-25T11:30:42.620Z,19.80
2022-08-25T11:33:14.889Z,19.80
2022-08-25T11:35:53.799Z,19.80
2022-08-25T11:38:53.170Z,19.90
2022-08-25T11:41:46.493Z,19.90
2022-08-25T11:44:53.331Z,20.00
2022-08-25T11:47:50.510Z,20.00
2022-08-25T11:50:37.323Z,20.10
2022-08-25T11:53:30.331Z,20.20
2022-08-25T11:56:05.804Z,20.20
2022-08-25T11:58:47.861Z,20.20
2022-08-25T12:01:57.184Z,20.30
2022-08-25T12:04:44.386Z,20.30
2022-08-25T12:07:20.025Z,20.30
2022-08-25T12:10:11.440Z,20.40
2022-08-25T12:12:59.598Z,20.30
2022-08-25T12:15:48.666Z,20.30
2022-08-25T12:18:45.656Z,20.40
2022-08-25T12:21:15.332Z,20.40
2022-08-25T12:24:04.832Z,20.40
2022-08-25T12:26:54.428Z,20.50
2022-08-25T12:29:33.266Z,20.50
2022-08-25T12:32:16.378Z,20.50
2022-08-25T12:35:23.389Z,20.60
2022-08-25T12:38:04.885Z,20.60
2022-08-25T12:40:55.895Z,20.60
2022-08-25T12:43:28.874Z,20.60
2022-08-25T12:46:35.322Z,20.60
2022-08-25T12:49:29.052Z,20.70
2022-08-25T12:52:11.428Z,20.70
2022-08-25T12:54:48.447Z,20.70
2022-08-25T12:57:43.470Z,20.80
2022-08-25T13:00:23.808Z,20.70
2022-08-25T13:03:25.403Z,20.70
2022-08-25T13:06:19.160Z,20.80
2022-08-25T13:09:26.438Z,20.80
2022-08-25T13:12:18.178Z,20.80
2022-08-25T13:14:54.404Z,20.70
2022-08-25T13:17:33.756Z,20.80
2022-08-25T13:20:23.518Z,20.80
2022-08-25T13:22:57.430Z,20.80
2022-08-25T13:25:32.221Z,20.70
2022-08-25T13:28:04.630Z,20.80
2022-08-25T13:30:35.125Z,20.70
2022-08-25T13:33:18.033Z,20.70
2022-08-25T13:36:12.909Z,20.70
2022-08-25T13:38:41.073Z,20.70
2022-08-25T13:41:28.894Z,20.80
2022-08-25T13:44:02.587Z,20.80
2022-08-25T13:46:29.948Z,20.80
2022-08-25T13:49:06.759Z,20.80
2022-08-25T13:51:37.009Z,20.90
2022-08-25T13:54:23.228Z,20.90
2022-08-25T13:56:52.233Z,20.90
2022-08-25T13:59:33.775Z,21.00
2022-08-25T14:02:01.195Z,21.00
2022-08-25T14:04:50.793Z,21.00
2022-08-25T14:07:27.047Z,21.00
2022-08-25T14:10:30.781Z,21.00
2022-08-25T14:13:36.596Z,21.00
2022-08-25T14:16:22.235Z,21.00
2022-08-25T14:18:58.580Z,21.00
2022-08-25T14:21:28.410Z,21.00
2022-08-25T14:23:57.273Z,21.00
2022-08-25T14:26:25.275Z,21.00
2022-08-25T14:28:53.841Z,21.00
2022-08-25T14:31:29.913Z,21.00
2022-08-25T14:34:03.629Z,21.00
2022-08-25T14:36:33.319Z,21.10
2022-08-25T14:39:05.879Z,21.10
2022-08-25T14:41:37.798Z,21.10
2022-08-25T14:44:05.737Z,21.10
2022-08-25T14:46:36.611Z,21.10
2022-08-25T14:49:08.361Z,21.10
2022-08-25T14:51:36.256Z,21.10
2022-08-25T14:54:07.463Z,21.10
2022-08-25T14:56:36.377Z,21.20
2022-08-25T14:59:04.796Z,21.20
2022-08-25T15:01:32.763Z,21.30
2022-08-25T15:04:15.473Z,21.50
2022-08-25T15:06:43.474Z,21.60
2022-08-25T15:09:16.347Z,21.70
2022-08-25T15:11:46.152Z,21.90
2022-08-25T15:14:16.009Z,22.10
2022-08-25T15:16:51.064Z,22.30
2022-08-25T15:19:21.993Z,22.50
2022-08-25T15:21:51.775Z,22.60
2022-08-25T15:24:20.486Z,22.80
2022-08-25T15:26:57.255Z,23.00
2022-08-25T15:29:27.473Z,23.10
2022-08-25T15:31:54.829Z,23.30
2022-08-25T15:34:22.597Z,23.40
2022-08-25T15:36:49.969Z,23.60
2022-08-25T15:39:18.824Z,23.70
2022-08-25T15:41:51.894Z,23.90
2022-08-25T15:44:19.695Z,24.00
2022-08-25T15:46:49.887Z,24.10
2022-08-25T15:49:23.636Z,24.20
2022-08-25T15:51:54.387Z,24.30
2022-08-25T15:54:23.204Z,24.40
2022-08-25T15:56:50.483Z,24.50
2022-08-25T15:59:19.766Z,24.60
2022-08-25T16:01:49.431Z,24.70
2022-08-25T16:04:16.659Z,24.80
2022-08-25T16:06:45.077Z,24.80
2022-08-25T16:09:12.538Z,24.90
2022-08-25T16:11:39.735Z,24.90
2022-08-25T16:14:07.029Z,24.90
2022-08-25T16:16:34.623Z,24.90
2022-08-25T16:19:02.547Z,24.90
2022-08-25T16:21:35.427Z,24.90
2022-08-25T16:24:07.609Z,25.00
2022-08-25T16:26:36.955Z,25.00
2022-08-25T16:29:07.241Z,25.00
2022-08-25T16:31:34.492Z,25.00
2022-08-25T16:34:01.843Z,25.00
2022-08-25T16:36:29.644Z,25.00
2022-08-25T16:38:57.970Z,25.00
2022-08-25T16:41:34.107Z,25.10
2022-08-25T16:44:03.359Z,25.10
2022-08-25T16:46:31.390Z,25.10
2022-08-25T16:49:01.401Z,25.10
2022-08-25T16:51:32.389Z,25.10
2022-08-25T16:54:22.268Z,25.10
2022-08-25T16:56:50.753Z,25.20
2022-08-25T16:59:23.560Z,25.20
2022-08-25T17:01:51.728Z,25.20
2022-08-25T17:04:19.878Z,25.20
2022-08-25T17:06:49.573Z,25.20
2022-08-25T17:09:24.170Z,25.20
2022-08-25T17:11:56.885Z,25.20
2022-08-25T17:14:25.135Z,25.30
2022-08-25T17:16:55.286Z,25.30
2022-08-25T17:19:23.631Z,25.30
2022-08-25T17:21:52.547Z,25.30
2022-08-25T17:24:19.757Z,25.30
2022-08-25T17:26:50.192Z,25.40
2022-08-25T17:29:18.858Z,25.40
2022-08-25T17:31:48.366Z,25.40
2022-08-25T17:34:16.940Z,25.40
2022-08-25T17:36:51.104Z,25.40
2022-08-25T17:39:22.340Z,25.40
2022-08-25T17:41:50.089Z,25.50
2022-08-25T17:44:17.544Z,25.50
2022-08-25T17:46:47.425Z,25.50
2022-08-25T17:49:15.616Z,25.50
2022-08-25T17:51:43.163Z,25.60
2022-08-25T17:54:10.935Z,25.60
2022-08-25T17:56:38.552Z,25.60
2022-08-25T17:59:06.439Z,25.70
2022-08-25T18:01:40.732Z,25.70
2022-08-25T18:04:09.887Z,25.80
2022-08-25T18:06:45.495Z,25.80
2022-08-25T18:09:13.087Z,25.90
2022-08-25T18:11:40.285Z,25.90
2022-08-25T18:14:08.193Z,25.90
2022-08-25T18:16:38.577Z,26.00
2022-08-25T18:19:09.670Z,26.00
2022-08-25T18:21:37.336Z,26.00
2022-08-25T18:24:05.736Z,26.00
2022-08-25T18:26:33.123Z,26.00
2022-08-25T18:29:00.766Z,26.00
2022-08-25T18:31:28.286Z,26.10
2022-08-25T18:33:55.499Z,26.10
2022-08-25T18:36:22.850Z,26.10
2022-08-25T18:39:10.597Z,26.10
2022-08-25T18:41:42.782Z,26.10
2022-08-25T18:44:12.508Z,26.10
2022-08-25T18:46:43.108Z,26.20
2022-08-25T18:49:15.602Z,26.10
2022-08-25T18:51:45.024Z,26.20
2022-08-25T18:54:23.109Z,26.20
2022-08-25T18:56:52.983Z,26.20
2022-08-25T18:59:23.738Z,26.20
2022-08-25T19:01:53.620Z,26.20
2022-08-25T19:04:28.429Z,26.20
2022-08-25T19:07:00.127Z,26.20
2022-08-25T19:09:27.338Z,26.20
2022-08-25T19:11:56.191Z,26.20
2022-08-25T19:14:23.503Z,26.20
2022-08-25T19:16:54.577Z,26.20
2022-08-25T19:19:23.279Z,26.10
2022-08-25T19:21:50.966Z,26.20
2022-08-25T19:24:18.352Z,26.20
2022-08-25T19:26:45.979Z,26.20
2022-08-25T19:29:15.804Z,26.10
2022-08-25T19:31:46.219Z,26.20
2022-08-25T19:34:18.890Z,26.10
2022-08-25T19:36:47.973Z,26.10
2022-08-25T19:39:16.437Z,26.10
2022-08-25T19:41:44.857Z,26.10
2022-08-25T19:44:12.851Z,26.10
2022-08-25T19:46:42.900Z,26.10
2022-08-25T19:49:15.426Z,26.10
2022-08-25T19:51:46.262Z,26.10
2022-08-25T19:54:21.626Z,26.10
2022-08-25T19:56:54.943Z,26.10
2022-08-25T19:59:42.298Z,26.10
2022-08-25T20:02:15.217Z,26.10
2022-08-25T20:04:49.407Z,26.10
2022-08-25T20:07:24.954Z,26.10
2022-08-25T20:09:53.672Z,26.10
2022-08-25T20:12:22.167Z,26.10
2022-08-25T20:14:51.442Z,26.00
2022-08-25T20:17:23.882Z,26.00
2022-08-25T20:19:55.879Z,26.00
2022-08-25T20:22:26.420Z,26.00
2022-08-25T20:24:57.800Z,26.00
2022-08-25T20:27:35.193Z,26.00
2022-08-25T20:30:04.226Z,26.00
2022-08-25T20:32:33.188Z,26.00
2022-08-25T20:35:01.454Z,26.00
2022-08-25T20:37:29.243Z,26.00
2022-08-25T20:39:56.544Z,26.00
2022-08-25T20:42:24.385Z,26.00
2022-08-25T20:44:52.460Z,26.00
2022-08-25T20:47:22.817Z,25.90
2022-08-25T20:49:50.445Z,25.90
2022-08-25T20:52:19.901Z,25.90
2022-08-25T20:54:50.370Z,25.90
2022-08-25T20:57:24.355Z,25.90
2022-08-25T20:59:53.687Z,25.90
2022-08-25T21:02:21.760Z,25.90
2022-08-25T21:04:50.182Z,25.90
2022-08-25T21:07:18.717Z,25.90
2022-08-25T21:09:46.552Z,25.90
2022-08-25T21:12:14.940Z,25.90
2022-08-25T21:14:42.597Z,25.90
2022-08-25T21:17:14.446Z,25.80
2022-08-25T21:19:42.049Z,25.80
2022-08-25T21:22:10.685Z,25.80
2022-08-25T21:24:39.255Z,25.80
2022-08-25T21:27:06.875Z,25.90
2022-08-25T21:29:34.230Z,25.80
2022-08-25T21:32:01.733Z,25.80
2022-08-25T21:34:29.794Z,25.80
2022-08-25T21:37:00.308Z,25.80
2022-08-25T21:39:29.861Z,25.80
2022-08-25T21:42:00.565Z,25.80
2022-08-25T21:44:29.843Z,25.80
2022-08-25T21:46:57.447Z,25.80
2022-08-25T21:49:25.619Z,25.80
2022-08-25T21:52:00.806Z,25.80
2022-08-25T21:54:29.075Z,25.80
2022-08-25T21:57:00.151Z,25.80
2022-08-25T21:59:30.699Z,25.70
2022-08-25T22:02:04.651Z,25.70
2022-08-25T22:04:32.956Z,25.70
2022-08-25T22:07:00.490Z,25.80
2022-08-25T22:09:28.898Z,25.70
2022-08-25T22:11:56.973Z,25.70
2022-08-25T22:14:26.442Z,25.70
2022-08-25T22:16:54.628Z,25.70
2022-08-25T22:19:23.033Z,25.70
2022-08-25T22:21:51.232Z,25.70
2022-08-25T22:24:19.635Z,25.70
2022-08-25T22:26:47.643Z,25.70
2022-08-25T22:29:25.572Z,25.70
2022-08-25T22:31:59.805Z,25.70
2022-08-25T22:34:32.659Z,25.70
2022-08-25T22:37:01.857Z,25.70
2022-08-25T22:39:32.250Z,25.70
2022-08-25T22:42:01.921Z,25.70
2022-08-25T22:44:29.103Z,25.70
2022-08-25T22:46:56.343Z,25.70
2022-08-25T22:49:23.839Z,25.70
2022-08-25T22:51:51.119Z,25.70
2022-08-25T22:54:22.185Z,25.60
2022-08-25T22:56:49.325Z,25.70
2022-08-25T22:59:16.491Z,25.60
2022-08-25T23:01:44.556Z,25.70
2022-08-25T23:04:12.734Z,25.60
2022-08-25T23:06:40.313Z,25.60
2022-08-25T23:09:09.565Z,25.60
2022-08-25T23:11:38.565Z,25.60
2022-08-25T23:14:10.352Z,25.60
2022-08-25T23:16:41.739Z,25.60
2022-08-25T23:19:13.880Z,25.60
2022-08-25T23:22:02.289Z,25.60
2022-08-25T23:24:30.927Z,25.60
2022-08-25T23:27:04.059Z,25.60
2022-08-25T23:29:34.395Z,25.60
2022-08-25T23:32:02.073Z,25.60
2022-08-25T23:34:29.939Z,25.60
2022-08-25T23:36:57.192Z,25.50
2022-08-25T23:39:25.006Z,25.50
2022-08-25T23:41:52.461Z,25.60
2022-08-25T23:44:21.397Z,25.50
2022-08-25T23:46:49.298Z,25.50
2022-08-25T23:49:19.022Z,25.50
2022-08-25T23:51:48.639Z,25.50
2022-08-25T23:54:17.784Z,25.50
2022-08-25T23:56:52.239Z,25.50
2022-08-25T23:59:24.499Z,25.50
